Time;durP1;ratioP1;P1;durP2;ratioP2;P2;SDS_P1;SDS_P2;PMS_P1;PMS_P2;Temp;Humidity;BMP_temperature;BMP_pressure;BME280_temperature;BME280_humidity;BME280_pressure;Samples;Min_cycle;Max_cycle;Signal;HPM_P1;HPM_P2
2023/11/20 00:03:04;;;;;;;;;;;11.70;99.90;;;;;;8406035;28;19975;-71
2023/11/20 00:07:05;;;;;;;;;;;11.70;99.90;;;;;;8405351;28;20403;-71
2023/11/20 00:11:07;;;;;;;;;;;11.70;99.90;;;;;;8404201;28;20382;-71
2023/11/20 00:15:09;;;;;;;;;;;11.70;99.90;;;;;;8374367;28;20383;-71
2023/11/20 00:19:11;;;;;;;;;;;11.70;99.90;;;;;;8395177;28;19931;-71
2023/11/20 00:23:13;;;;;;;;;;;11.60;99.90;;;;;;8417986;28;19924;-71
2023/11/20 00:27:15;;;;;;;;;;;11.60;99.90;;;;;;8405156;28;19928;-70
2023/11/20 00:31:17;;;;;;;;;;;11.60;99.90;;;;;;8393853;28;19924;-71
2023/11/20 00:35:19;;;;;;;;;;;11.50;99.90;;;;;;8381585;28;19925;-70
2023/11/20 00:39:21;;;;;;;;;;;11.60;99.90;;;;;;8376966;28;19928;-71
2023/11/20 00:43:22;;;;;;;;;;;11.60;99.90;;;;;;8414007;28;19979;-71
2023/11/20 00:47:24;;;;;;;;;;;11.50;99.90;;;;;;8398503;28;19931;-71
2023/11/20 00:51:26;;;;;;;;;;;11.50;99.90;;;;;;8368605;28;20430;-70
2023/11/20 00:55:27;;;;;;;;;;;11.40;99.90;;;;;;8393383;28;19924;-71
2023/11/20 00:59:29;;;;;;;;;;;11.50;99.90;;;;;;8380945;28;19928;-71
2023/11/20 01:03:32;;;;;;;;;;;11.50;99.90;;;;;;8391639;28;19925;-71
2023/11/20 01:07:34;;;;;;;;;;;11.40;99.90;;;;;;8385824;28;19976;-70
2023/11/20 01:11:36;;;;;;;;;;;11.40;99.90;;;;;;8388376;28;19928;-71
2023/11/20 01:15:38;;;;;;;;;;;11.40;99.90;;;;;;8399457;28;19932;-71
2023/11/20 01:19:39;;;;;;;;;;;11.40;99.90;;;;;;8376815;28;19925;-71
2023/11/20 01:23:41;;;;;;;;;;;11.40;99.90;;;;;;8379655;28;20002;-70
2023/11/20 01:27:43;;;;;;;;;;;11.30;99.90;;;;;;8398915;28;19924;-71
2023/11/20 01:31:44;;;;;;;;;;;11.30;99.90;;;;;;8389006;28;19947;-71
2023/11/20 01:35:47;;;;;;;;;;;11.30;99.90;;;;;;8401845;28;19928;-71
2023/11/20 01:39:49;;;;;;;;;;;11.30;99.90;;;;;;8398535;28;19924;-71
2023/11/20 01:43:51;;;;;;;;;;;11.30;99.90;;;;;;8401146;28;20326;-71
2023/11/20 01:47:52;;;;;;;;;;;11.30;99.90;;;;;;8394000;28;19935;-71
2023/11/20 01:51:54;;;;;;;;;;;11.30;99.90;;;;;;8392063;28;19924;-71
2023/11/20 01:55:56;;;;;;;;;;;11.30;99.90;;;;;;8416153;28;19924;-71
2023/11/20 01:59:57;;;;;;;;;;;11.30;99.90;;;;;;8393792;28;19964;-71
2023/11/20 02:04:00;;;;;;;;;;;11.30;99.90;;;;;;8375947;28;19928;-71
2023/11/20 02:08:02;;;;;;;;;;;11.30;99.90;;;;;;8401711;28;19982;-71
2023/11/20 02:12:05;;;;;;;;;;;11.30;99.90;;;;;;8401238;28;19931;-71
2023/11/20 02:16:07;;;;;;;;;;;11.30;99.90;;;;;;8393160;28;19942;-71
2023/11/20 02:20:10;;;;;;;;;;;11.30;99.90;;;;;;8389804;28;20073;-71
2023/11/20 02:24:13;;;;;;;;;;;11.20;99.90;;;;;;8404342;28;19931;-71
2023/11/20 02:28:21;;;;;;;;;;;11.20;99.90;;;;;;8392735;28;19925;-71
2023/11/20 02:32:23;;;;;;;;;;;11.20;99.90;;;;;;8388712;28;19967;-71
2023/11/20 02:36:25;;;;;;;;;;;11.10;99.90;;;;;;8395928;28;19958;-71
2023/11/20 02:40:27;;;;;;;;;;;11.10;99.90;;;;;;8377397;28;19979;-71
2023/11/20 02:44:28;;;;;;;;;;;11.10;99.90;;;;;;8408622;28;19924;-71
2023/11/20 02:48:30;;;;;;;;;;;11.10;99.90;;;;;;8394392;28;19929;-71
2023/11/20 02:52:32;;;;;;;;;;;11.10;99.90;;;;;;8414564;28;19925;-71
2023/11/20 02:56:34;;;;;;;;;;;11.10;99.90;;;;;;8405977;28;19967;-71
2023/11/20 03:00:37;;;;;;;;;;;11.00;99.90;;;;;;8383561;28;19940;-71
2023/11/20 03:04:39;;;;;;;;;;;11.00;99.90;;;;;;8387634;28;19929;-71
2023/11/20 03:08:41;;;;;;;;;;;11.00;99.90;;;;;;8414955;28;19924;-71
2023/11/20 03:12:42;;;;;;;;;;;11.00;99.90;;;;;;8394005;28;19940;-71
2023/11/20 03:16:44;;;;;;;;;;;11.00;99.90;;;;;;8374974;28;19932;-71
2023/11/20 03:20:46;;;;;;;;;;;11.00;99.90;;;;;;8405579;28;20362;-71
2023/11/20 03:24:48;;;;;;;;;;;11.00;99.90;;;;;;8384826;28;19965;-70
2023/11/20 03:28:50;;;;;;;;;;;11.00;99.90;;;;;;8398006;28;19924;-70
2023/11/20 03:32:51;;;;;;;;;;;11.00;99.90;;;;;;8407149;28;19928;-71
2023/11/20 03:36:53;;;;;;;;;;;11.00;99.90;;;;;;8404053;28;19933;-70
2023/11/20 03:40:55;;;;;;;;;;;11.00;99.90;;;;;;8391290;28;20026;-70
2023/11/20 03:44:56;;;;;;;;;;;11.00;99.90;;;;;;8386492;28;19928;-71
2023/11/20 03:48:58;;;;;;;;;;;11.00;99.90;;;;;;8412588;28;19936;-71
2023/11/20 03:53:00;;;;;;;;;;;10.90;99.90;;;;;;8371031;28;20392;-71
2023/11/20 03:57:02;;;;;;;;;;;11.00;99.90;;;;;;8402799;28;20360;-71
2023/11/20 04:01:03;;;;;;;;;;;11.00;99.90;;;;;;8399145;28;19929;-70
2023/11/20 04:05:05;;;;;;;;;;;11.00;99.90;;;;;;8394738;28;19928;-71
2023/11/20 04:09:07;;;;;;;;;;;11.00;99.90;;;;;;8421292;28;19928;-70
2023/11/20 04:13:09;;;;;;;;;;;11.00;99.90;;;;;;8403524;28;19976;-71
2023/11/20 04:17:10;;;;;;;;;;;11.00;99.90;;;;;;8370677;28;20406;-71
2023/11/20 04:21:12;;;;;;;;;;;11.00;99.90;;;;;;8404775;28;19932;-70
2023/11/20 04:25:14;;;;;;;;;;;10.90;99.90;;;;;;8385026;28;20403;-71
2023/11/20 04:29:16;;;;;;;;;;;10.90;99.90;;;;;;8398812;28;19927;-71
2023/11/20 04:33:18;;;;;;;;;;;10.90;99.90;;;;;;8397708;28;19950;-71
2023/11/20 04:37:19;;;;;;;;;;;10.90;99.90;;;;;;8403740;28;19928;-71
2023/11/20 04:41:21;;;;;;;;;;;10.90;99.90;;;;;;8404595;28;19990;-71
2023/11/20 04:45:22;;;;;;;;;;;10.80;99.90;;;;;;8380636;28;19925;-71
2023/11/20 04:49:24;;;;;;;;;;;10.90;99.90;;;;;;8380822;28;19924;-72
2023/11/20 04:53:26;;;;;;;;;;;10.90;99.90;;;;;;8385362;28;19932;-70
2023/11/20 04:57:27;;;;;;;;;;;10.80;99.90;;;;;;8377930;28;20319;-70
2023/11/20 05:01:32;;;;;;;;;;;10.90;99.90;;;;;;8402681;28;20371;-71
2023/11/20 05:05:34;;;;;;;;;;;10.90;99.90;;;;;;8385530;28;22275;-70
2023/11/20 05:09:36;;;;;;;;;;;10.90;99.90;;;;;;8397193;28;20305;-71
2023/11/20 05:13:37;;;;;;;;;;;10.80;99.90;;;;;;8395086;28;20356;-70
2023/11/20 05:17:39;;;;;;;;;;;10.90;99.90;;;;;;8362903;28;20379;-71
2023/11/20 05:21:44;;;;;;;;;;;10.80;99.90;;;;;;8399179;28;19928;-70
2023/11/20 05:25:46;;;;;;;;;;;10.80;99.90;;;;;;8400786;28;19925;-71
2023/11/20 05:29:48;;;;;;;;;;;10.80;99.90;;;;;;8392132;28;19940;-71
2023/11/20 05:33:50;;;;;;;;;;;10.80;99.90;;;;;;8401424;28;19933;-71
2023/11/20 05:37:51;;;;;;;;;;;10.70;99.90;;;;;;8394638;28;19928;-71
2023/11/20 05:41:53;;;;;;;;;;;10.70;99.90;;;;;;8403031;28;20356;-70
2023/11/20 05:45:54;;;;;;;;;;;10.60;99.90;;;;;;8404461;28;20264;-71
2023/11/20 05:49:56;;;;;;;;;;;10.70;99.90;;;;;;8373731;28;19955;-71
2023/11/20 05:53:58;;;;;;;;;;;10.70;99.90;;;;;;8392252;28;19939;-71
2023/11/20 05:58:00;;;;;;;;;;;10.70;99.90;;;;;;8379850;28;19932;-71
2023/11/20 06:02:02;;;;;;;;;;;10.70;99.90;;;;;;8360338;28;19925;-71
2023/11/20 06:06:04;;;;;;;;;;;10.70;99.90;;;;;;8360008;28;19924;-70
2023/11/20 06:10:06;;;;;;;;;;;10.70;99.90;;;;;;8369008;28;19951;-71
2023/11/20 06:14:09;;;;;;;;;;;10.70;99.90;;;;;;8379103;28;20242;-71
2023/11/20 06:18:11;;;;;;;;;;;10.70;99.90;;;;;;8389582;28;20243;-71
2023/11/20 06:22:13;;;;;;;;;;;10.60;99.90;;;;;;8375570;28;19924;-71
2023/11/20 06:26:14;;;;;;;;;;;10.60;99.90;;;;;;8378844;28;19926;-71
2023/11/20 06:30:16;;;;;;;;;;;10.50;99.90;;;;;;8391114;28;19990;-70
2023/11/20 06:34:18;;;;;;;;;;;10.50;99.90;;;;;;8388237;28;19981;-71
2023/11/20 06:38:20;;;;;;;;;;;10.50;99.90;;;;;;8392828;28;19931;-70
2023/11/20 06:42:21;;;;;;;;;;;10.50;99.90;;;;;;8380768;28;20303;-71
2023/11/20 06:46:25;;;;;;;;;;;10.50;99.90;;;;;;8403482;28;19970;-71
2023/11/20 06:50:27;;;;;;;;;;;10.40;99.90;;;;;;8394682;28;19933;-70
2023/11/20 06:54:29;;;;;;;;;;;10.40;99.90;;;;;;8376658;28;20292;-70
2023/11/20 06:58:34;;;;;;;;;;;10.40;99.90;;;;;;8384202;28;19931;-71
2023/11/20 07:02:36;;;;;;;;;;;10.30;99.90;;;;;;8391435;28;19947;-70
2023/11/20 07:06:42;;;;;;;;;;;10.20;99.90;;;;;;8405572;28;19931;-71
2023/11/20 07:10:44;;;;;;;;;;;10.20;99.90;;;;;;8397217;28;19925;-71
2023/11/20 07:14:45;;;;;;;;;;;10.20;99.90;;;;;;8366093;28;19946;-70
2023/11/20 07:18:48;;;;;;;;;;;10.20;99.90;;;;;;8407559;28;19935;-70
2023/11/20 07:22:50;;;;;;;;;;;10.20;99.90;;;;;;8371067;28;19969;-71
2023/11/20 07:26:52;;;;;;;;;;;10.20;99.90;;;;;;8392013;28;19929;-70
2023/11/20 07:30:53;;;;;;;;;;;10.20;99.90;;;;;;8403231;28;20267;-70
2023/11/20 07:34:55;;;;;;;;;;;10.20;99.90;;;;;;8400647;28;20306;-70
2023/11/20 07:38:57;;;;;;;;;;;10.20;99.90;;;;;;8410134;28;19936;-70
2023/11/20 07:42:58;;;;;;;;;;;10.20;99.90;;;;;;8412840;28;19967;-70
2023/11/20 07:47:00;;;;;;;;;;;10.20;99.90;;;;;;8404554;28;19931;-71
2023/11/20 07:51:02;;;;;;;;;;;10.20;99.90;;;;;;8414832;28;20319;-70
2023/11/20 07:55:04;;;;;;;;;;;10.20;99.90;;;;;;8392829;28;19925;-71
2023/11/20 07:59:05;;;;;;;;;;;10.20;99.90;;;;;;8394273;28;19987;-70
2023/11/20 08:03:08;;;;;;;;;;;10.20;99.90;;;;;;8383952;28;19928;-70
2023/11/20 08:07:11;;;;;;;;;;;10.20;99.90;;;;;;8390666;28;19924;-71
2023/11/20 08:11:13;;;;;;;;;;;10.20;99.90;;;;;;8401942;28;19951;-70
2023/11/20 08:15:15;;;;;;;;;;;10.20;99.90;;;;;;8398814;28;19924;-71
2023/11/20 08:19:17;;;;;;;;;;;10.20;99.90;;;;;;8376847;28;20367;-71
2023/11/20 08:23:19;;;;;;;;;;;10.20;99.90;;;;;;8406059;28;19924;-70
2023/11/20 08:27:20;;;;;;;;;;;10.20;99.90;;;;;;8396236;28;19929;-71
2023/11/20 08:31:22;;;;;;;;;;;10.20;99.90;;;;;;8411343;28;19932;-70
2023/11/20 08:35:23;;;;;;;;;;;10.30;99.90;;;;;;8400810;28;19932;-71
2023/11/20 08:39:31;;;;;;;;;;;10.30;99.90;;;;;;8393034;28;20390;-70
2023/11/20 08:43:34;;;;;;;;;;;10.30;99.90;;;;;;8394260;28;19924;-72
2023/11/20 08:47:35;;;;;;;;;;;10.30;99.90;;;;;;8395380;28;19931;-71
2023/11/20 08:51:37;;;;;;;;;;;10.40;99.90;;;;;;8396408;28;20020;-71
2023/11/20 08:55:44;;;;;;;;;;;10.50;99.90;;;;;;8368880;28;19980;-71
2023/11/20 08:59:46;;;;;;;;;;;10.60;99.90;;;;;;8370074;28;19933;-70
2023/11/20 09:03:48;;;;;;;;;;;10.70;99.90;;;;;;8401773;28;19939;-70
2023/11/20 09:07:50;;;;;;;;;;;10.90;99.90;;;;;;8393066;28;19928;-70
2023/11/20 09:11:51;;;;;;;;;;;11.00;99.90;;;;;;8397562;28;19939;-70
2023/11/20 09:15:53;;;;;;;;;;;11.10;99.90;;;;;;8388011;28;19924;-71
2023/11/20 09:19:55;;;;;;;;;;;11.20;99.90;;;;;;8400869;28;19924;-71
2023/11/20 09:23:57;;;;;;;;;;;11.20;99.90;;;;;;8391960;28;19925;-70
2023/11/20 09:27:59;;;;;;;;;;;11.30;99.90;;;;;;8396175;28;19924;-71
2023/11/20 09:32:02;;;;;;;;;;;11.40;99.90;;;;;;8400246;28;19963;-70
2023/11/20 09:36:04;;;;;;;;;;;11.40;99.90;;;;;;8400941;28;19931;-71
2023/11/20 09:40:06;;;;;;;;;;;11.50;99.90;;;;;;8410916;28;19977;-71
2023/11/20 09:44:09;;;;;;;;;;;11.70;99.90;;;;;;8400025;28;19928;-71
2023/11/20 09:48:13;;;;;;;;;;;11.90;99.90;;;;;;8405010;28;19970;-71
2023/11/20 09:52:15;;;;;;;;;;;12.00;99.90;;;;;;8403553;28;19931;-70
2023/11/20 09:56:17;;;;;;;;;;;12.10;99.90;;;;;;8401867;28;19924;-71
2023/11/20 10:00:18;;;;;;;;;;;12.10;99.90;;;;;;8383057;28;19924;-71
2023/11/20 10:04:23;;;;;;;;;;;12.00;99.90;;;;;;8398342;28;19925;-71
2023/11/20 10:08:27;;;;;;;;;;;12.00;99.90;;;;;;8392829;28;19939;-71
2023/11/20 10:12:30;;;;;;;;;;;12.00;99.90;;;;;;8409247;28;19932;-72
2023/11/20 10:16:35;;;;;;;;;;;12.20;99.90;;;;;;8389894;28;19924;-70
2023/11/20 10:20:47;;;;;;;;;;;12.20;99.90;;;;;;8392631;28;20383;-70
2023/11/20 10:24:49;;;;;;;;;;;12.20;99.90;;;;;;8410105;28;19932;-71
2023/11/20 10:28:50;;;;;;;;;;;12.20;99.90;;;;;;8403167;28;19932;-70
2023/11/20 10:32:53;;;;;;;;;;;12.00;99.90;;;;;;8408677;28;19932;-70
2023/11/20 10:37:05;;;;;;;;;;;11.90;99.90;;;;;;8372635;28;20346;-71
2023/11/20 10:41:10;;;;;;;;;;;11.70;99.90;;;;;;8398656;28;19927;-71
2023/11/20 10:45:12;;;;;;;;;;;11.70;99.90;;;;;;8405247;28;19933;-71
2023/11/20 10:49:16;;;;;;;;;;;11.70;99.90;;;;;;8400219;28;21493;-71
2023/11/20 10:53:19;;;;;;;;;;;11.70;99.90;;;;;;8391623;28;20356;-70
2023/11/20 10:57:21;;;;;;;;;;;11.70;99.90;;;;;;8392281;28;19928;-70
2023/11/20 11:01:23;;;;;;;;;;;11.70;99.90;;;;;;8369331;28;20600;-71
2023/11/20 11:05:26;;;;;;;;;;;11.70;99.90;;;;;;8390614;28;19979;-71
2023/11/20 11:09:30;;;;;;;;;;;11.70;99.90;;;;;;8396040;28;19924;-71
2023/11/20 11:13:32;;;;;;;;;;;11.80;99.90;;;;;;8377009;28;20702;-71
2023/11/20 11:17:41;;;;;;;;;;;11.90;99.90;;;;;;8393843;28;19933;-71
2023/11/20 11:21:56;;;;;;;;;;;12.10;99.90;;;;;;8396860;28;19940;-71
2023/11/20 11:26:10;;;;;;;;;;;12.50;99.90;;;;;;8396957;28;20006;-71
2023/11/20 11:30:13;;;;;;;;;;;12.70;99.90;;;;;;8359596;28;19978;-71
2023/11/20 11:34:26;;;;;;;;;;;13.20;99.90;;;;;;8396648;28;19924;-71
2023/11/20 11:38:34;;;;;;;;;;;13.50;99.90;;;;;;8384649;28;19929;-71
2023/11/20 11:42:45;;;;;;;;;;;13.50;99.90;;;;;;8410644;28;20232;-71
2023/11/20 11:46:50;;;;;;;;;;;13.30;99.90;;;;;;8403880;28;19924;-70
2023/11/20 11:50:52;;;;;;;;;;;13.10;99.90;;;;;;8401355;28;19968;-71
2023/11/20 11:55:09;;;;;;;;;;;12.90;99.90;;;;;;8373635;28;19927;-71
2023/11/20 11:59:15;;;;;;;;;;;12.60;99.90;;;;;;8402717;28;19936;-70
2023/11/20 12:03:32;;;;;;;;;;;12.50;99.90;;;;;;8386688;28;20283;-71
2023/11/20 12:07:34;;;;;;;;;;;12.40;99.90;;;;;;8391530;28;19974;-71
2023/11/20 12:11:49;;;;;;;;;;;12.30;99.90;;;;;;8394642;28;19925;-71
2023/11/20 12:15:55;;;;;;;;;;;12.50;99.90;;;;;;8399067;28;19924;-70
2023/11/20 12:19:59;;;;;;;;;;;13.00;99.90;;;;;;8417206;28;20336;-71
2023/11/20 12:24:01;;;;;;;;;;;13.10;99.90;;;;;;8387044;28;20023;-71
2023/11/20 12:28:04;;;;;;;;;;;13.10;99.90;;;;;;8404217;28;19936;-71
2023/11/20 12:32:06;;;;;;;;;;;13.00;99.90;;;;;;8397093;28;20371;-71
2023/11/20 12:36:09;;;;;;;;;;;12.80;99.90;;;;;;8374352;28;19925;-71
2023/11/20 12:40:11;;;;;;;;;;;13.00;99.90;;;;;;8408006;28;19924;-71
2023/11/20 12:44:14;;;;;;;;;;;13.50;99.90;;;;;;8391906;28;19943;-70
2023/11/20 12:48:16;;;;;;;;;;;13.50;99.90;;;;;;8393829;28;20445;-71
2023/11/20 12:52:18;;;;;;;;;;;13.20;99.90;;;;;;8394818;28;20407;-71
2023/11/20 12:56:19;;;;;;;;;;;13.00;99.90;;;;;;8391743;28;20337;-70
2023/11/20 13:00:23;;;;;;;;;;;13.30;99.90;;;;;;8409390;28;20276;-71
2023/11/20 13:04:25;;;;;;;;;;;13.70;99.90;;;;;;8381415;28;20488;-71
2023/11/20 13:08:28;;;;;;;;;;;14.20;99.90;;;;;;8396358;28;19932;-71
2023/11/20 13:12:30;;;;;;;;;;;14.30;99.90;;;;;;8394390;28;19924;-70
2023/11/20 13:16:32;;;;;;;;;;;14.10;99.90;;;;;;8376600;28;19974;-71
2023/11/20 13:20:37;;;;;;;;;;;13.80;99.90;;;;;;8416526;28;19924;-71
2023/11/20 13:24:47;;;;;;;;;;;13.50;99.90;;;;;;8394760;28;19925;-70
2023/11/20 13:29:00;;;;;;;;;;;13.30;99.90;;;;;;8401632;28;19924;-71
2023/11/20 13:33:01;;;;;;;;;;;13.20;99.90;;;;;;8392677;28;20303;-70
2023/11/20 13:37:03;;;;;;;;;;;13.10;99.90;;;;;;8393101;28;19935;-70
2023/11/20 13:41:08;;;;;;;;;;;13.10;99.90;;;;;;8392136;28;20421;-71
2023/11/20 13:45:10;;;;;;;;;;;13.00;99.90;;;;;;8400430;28;19925;-71
2023/11/20 13:49:14;;;;;;;;;;;12.90;99.90;;;;;;8374034;28;20014;-71
2023/11/20 13:53:16;;;;;;;;;;;12.80;99.90;;;;;;8401563;28;19931;-71
2023/11/20 13:57:17;;;;;;;;;;;12.70;99.90;;;;;;8381229;28;19924;-71
2023/11/20 14:01:20;;;;;;;;;;;12.70;99.90;;;;;;8398920;28;19924;-71
2023/11/20 14:05:22;;;;;;;;;;;12.60;99.90;;;;;;8377097;28;20360;-71
2023/11/20 14:09:25;;;;;;;;;;;12.60;99.90;;;;;;8387812;28;19932;-71
2023/11/20 14:13:27;;;;;;;;;;;12.60;99.90;;;;;;8399543;28;19925;-70
2023/11/20 14:17:29;;;;;;;;;;;12.60;99.90;;;;;;8391675;28;19929;-71
2023/11/20 14:21:31;;;;;;;;;;;12.70;99.90;;;;;;8372776;28;19936;-71
2023/11/20 14:25:32;;;;;;;;;;;12.80;99.90;;;;;;8401189;28;19930;-71
2023/11/20 14:29:34;;;;;;;;;;;12.80;99.90;;;;;;8399035;28;19924;-71
2023/11/20 14:33:38;;;;;;;;;;;12.80;99.90;;;;;;8410544;28;19928;-71
2023/11/20 14:37:41;;;;;;;;;;;12.80;99.90;;;;;;8402331;28;19928;-71
2023/11/20 14:41:43;;;;;;;;;;;12.60;99.90;;;;;;8386951;28;19936;-71
2023/11/20 14:45:45;;;;;;;;;;;12.50;99.90;;;;;;8400954;28;19928;-71
2023/11/20 14:49:46;;;;;;;;;;;12.70;99.90;;;;;;8398127;28;19929;-71
2023/11/20 14:53:48;;;;;;;;;;;12.90;99.90;;;;;;8415204;28;19928;-71
2023/11/20 14:57:50;;;;;;;;;;;13.10;99.90;;;;;;8384067;28;19947;-71
2023/11/20 15:01:52;;;;;;;;;;;13.00;99.90;;;;;;8378629;28;19985;-71
2023/11/20 15:05:55;;;;;;;;;;;12.80;99.90;;;;;;8388595;28;19928;-71
2023/11/20 15:09:57;;;;;;;;;;;12.50;99.90;;;;;;8401316;28;20221;-71
2023/11/20 15:13:59;;;;;;;;;;;12.40;99.90;;;;;;8411106;28;19924;-71
2023/11/20 15:18:01;;;;;;;;;;;12.30;99.90;;;;;;8388448;28;19946;-71
2023/11/20 15:22:03;;;;;;;;;;;12.20;99.90;;;;;;8400845;28;19928;-71
2023/11/20 15:26:05;;;;;;;;;;;12.20;99.90;;;;;;8400197;28;20367;-71
2023/11/20 15:30:07;;;;;;;;;;;12.10;99.90;;;;;;8387046;28;19974;-71
2023/11/20 15:34:09;;;;;;;;;;;12.00;99.90;;;;;;8381332;28;19928;-71
2023/11/20 15:38:11;;;;;;;;;;;11.80;99.90;;;;;;8398228;28;20364;-71
2023/11/20 15:42:13;;;;;;;;;;;11.70;99.90;;;;;;8400246;28;19929;-71
2023/11/20 15:46:15;;;;;;;;;;;11.50;99.90;;;;;;8409517;28;19924;-71
2023/11/20 15:50:16;;;;;;;;;;;11.40;99.90;;;;;;8417916;28;19928;-71
2023/11/20 15:54:18;;;;;;;;;;;11.30;99.90;;;;;;8381447;28;19932;-71
2023/11/20 15:58:20;;;;;;;;;;;11.20;99.90;;;;;;8412195;28;19940;-71
2023/11/20 16:02:22;;;;;;;;;;;11.20;99.90;;;;;;8407799;28;19932;-71
2023/11/20 16:06:23;;;;;;;;;;;11.10;99.90;;;;;;8395590;28;19960;-71
2023/11/20 16:10:25;;;;;;;;;;;11.00;99.90;;;;;;8388078;28;19966;-71
2023/11/20 16:14:27;;;;;;;;;;;10.90;99.90;;;;;;8384209;28;19951;-70
2023/11/20 16:18:29;;;;;;;;;;;10.80;99.90;;;;;;8400766;28;19930;-71
2023/11/20 16:22:30;;;;;;;;;;;10.80;99.90;;;;;;8371387;28;19931;-71
2023/11/20 16:26:32;;;;;;;;;;;10.80;99.90;;;;;;8365614;28;19929;-71
2023/11/20 16:30:34;;;;;;;;;;;10.70;99.90;;;;;;8384685;28;19968;-71
2023/11/20 16:34:36;;;;;;;;;;;10.70;99.90;;;;;;8403798;28;19924;-71
2023/11/20 16:38:38;;;;;;;;;;;10.70;99.90;;;;;;8352057;28;19925;-71
2023/11/20 16:42:40;;;;;;;;;;;10.70;99.90;;;;;;8360190;28;20376;-71
2023/11/20 16:46:41;;;;;;;;;;;10.60;99.90;;;;;;8355412;28;19929;-71
2023/11/20 16:50:44;;;;;;;;;;;10.60;99.90;;;;;;8361973;28;20204;-71
2023/11/20 16:54:47;;;;;;;;;;;10.50;99.90;;;;;;8357169;28;19924;-71
2023/11/20 16:58:49;;;;;;;;;;;10.50;99.90;;;;;;8359664;28;19982;-71
2023/11/20 17:02:51;;;;;;;;;;;10.40;99.90;;;;;;8342842;28;19925;-71
2023/11/20 17:06:54;;;;;;;;;;;10.40;99.90;;;;;;8368902;28;20024;-71
2023/11/20 17:10:57;;;;;;;;;;;10.30;99.90;;;;;;8335837;28;19925;-71
2023/11/20 17:14:58;;;;;;;;;;;10.30;99.90;;;;;;8352737;28;19924;-70
2023/11/20 17:19:00;;;;;;;;;;;10.30;99.90;;;;;;8356216;28;20465;-71
2023/11/20 17:23:02;;;;;;;;;;;10.20;99.90;;;;;;8363874;28;19936;-71
2023/11/20 17:27:04;;;;;;;;;;;10.20;99.90;;;;;;8358813;28;19932;-71
2023/11/20 17:31:07;;;;;;;;;;;10.10;99.90;;;;;;8375052;28;20269;-71
2023/11/20 17:35:10;;;;;;;;;;;10.00;99.90;;;;;;8344757;28;20036;-71
2023/11/20 17:39:15;;;;;;;;;;;9.90;99.90;;;;;;8344826;28;19932;-71
2023/11/20 17:43:17;;;;;;;;;;;9.80;99.90;;;;;;8359957;28;20622;-71
2023/11/20 17:47:19;;;;;;;;;;;9.80;99.90;;;;;;8345985;28;19932;-71
2023/11/20 17:51:20;;;;;;;;;;;9.80;99.90;;;;;;8358328;28;19940;-71
2023/11/20 17:55:22;;;;;;;;;;;9.70;99.90;;;;;;8357678;28;19995;-70
2023/11/20 17:59:24;;;;;;;;;;;9.80;99.90;;;;;;8361504;28;20269;-71
2023/11/20 18:03:25;;;;;;;;;;;9.80;99.90;;;;;;8364328;28;19928;-70
2023/11/20 18:07:27;;;;;;;;;;;9.80;99.90;;;;;;8349948;28;20268;-71
2023/11/20 18:11:29;;;;;;;;;;;9.80;99.90;;;;;;8358576;28;20336;-70
2023/11/20 18:15:31;;;;;;;;;;;9.80;99.90;;;;;;8356975;28;20287;-71
2023/11/20 18:19:32;;;;;;;;;;;9.80;99.90;;;;;;8362169;28;19924;-71
2023/11/20 18:23:34;;;;;;;;;;;9.80;99.90;;;;;;8337656;28;19932;-71
2023/11/20 18:27:37;;;;;;;;;;;9.80;99.90;;;;;;8355279;28;20396;-71
2023/11/20 18:31:39;;;;;;;;;;;9.80;99.90;;;;;;8358293;28;19979;-71
2023/11/20 18:35:41;;;;;;;;;;;9.90;99.90;;;;;;8359667;28;19933;-71
2023/11/20 18:39:43;;;;;;;;;;;9.90;99.90;;;;;;8351857;28;19968;-71
2023/11/20 18:43:46;;;;;;;;;;;10.00;99.90;;;;;;8361681;28;20303;-70
2023/11/20 18:47:49;;;;;;;;;;;10.00;99.90;;;;;;8358275;28;19936;-71
2023/11/20 18:51:50;;;;;;;;;;;10.00;99.90;;;;;;8359517;28;19925;-71
2023/11/20 18:55:52;;;;;;;;;;;9.90;99.90;;;;;;8339112;28;19925;-71
2023/11/20 18:59:54;;;;;;;;;;;9.90;99.90;;;;;;8341930;28;19929;-70
2023/11/20 19:03:58;;;;;;;;;;;9.90;99.90;;;;;;8363973;28;20418;-71
2023/11/20 19:08:02;;;;;;;;;;;9.80;99.90;;;;;;8356284;28;19924;-70
2023/11/20 19:12:04;;;;;;;;;;;9.80;99.90;;;;;;8370417;28;19940;-71
2023/11/20 19:16:08;;;;;;;;;;;9.80;99.90;;;;;;8362776;28;19986;-71
2023/11/20 19:20:12;;;;;;;;;;;9.80;99.90;;;;;;8359061;28;19939;-71
2023/11/20 19:24:14;;;;;;;;;;;9.70;99.90;;;;;;8355658;28;19933;-71
2023/11/20 19:28:16;;;;;;;;;;;9.70;99.90;;;;;;8352865;28;19932;-71
2023/11/20 19:32:19;;;;;;;;;;;9.60;99.90;;;;;;8367082;28;19928;-70
2023/11/20 19:36:20;;;;;;;;;;;9.50;99.90;;;;;;8363887;28;19964;-70
2023/11/20 19:40:25;;;;;;;;;;;9.40;99.90;;;;;;8368139;28;24655;-71
2023/11/20 19:44:27;;;;;;;;;;;9.40;99.90;;;;;;8374820;28;19932;-71
2023/11/20 19:48:28;;;;;;;;;;;9.30;99.90;;;;;;8363239;28;19933;-71
2023/11/20 19:52:30;;;;;;;;;;;9.20;99.90;;;;;;8364115;28;19929;-71
2023/11/20 19:56:32;;;;;;;;;;;9.20;99.90;;;;;;8346854;28;20298;-71
2023/11/20 20:00:33;;;;;;;;;;;9.20;99.90;;;;;;8367634;28;19940;-70
2023/11/20 20:04:37;;;;;;;;;;;9.20;99.90;;;;;;8376970;28;19931;-70
2023/11/20 20:08:38;;;;;;;;;;;9.20;99.90;;;;;;8362711;28;19935;-72
2023/11/20 20:12:40;;;;;;;;;;;9.20;99.90;;;;;;8377201;28;19924;-71
2023/11/20 20:16:42;;;;;;;;;;;9.20;99.90;;;;;;8370024;28;19925;-71
2023/11/20 20:20:44;;;;;;;;;;;9.20;99.90;;;;;;8366783;28;20012;-70
2023/11/20 20:24:46;;;;;;;;;;;9.30;99.90;;;;;;8362825;28;19924;-71
2023/11/20 20:28:50;;;;;;;;;;;9.30;99.90;;;;;;8361898;28;19925;-70
2023/11/20 20:32:52;;;;;;;;;;;9.40;99.90;;;;;;8374163;28;20639;-71
2023/11/20 20:36:54;;;;;;;;;;;9.40;99.90;;;;;;8364128;28;20227;-71
2023/11/20 20:40:57;;;;;;;;;;;9.40;99.90;;;;;;8358650;28;19979;-70
2023/11/20 20:44:59;;;;;;;;;;;9.40;99.90;;;;;;8369788;28;20372;-70
2023/11/20 20:49:01;;;;;;;;;;;9.40;99.90;;;;;;8363690;28;19925;-70
2023/11/20 20:53:03;;;;;;;;;;;9.50;99.90;;;;;;8358731;28;19987;-70
2023/11/20 20:57:04;;;;;;;;;;;9.50;99.90;;;;;;8349220;28;19936;-71
2023/11/20 21:01:06;;;;;;;;;;;9.50;99.90;;;;;;8361033;28;19925;-71
2023/11/20 21:05:10;;;;;;;;;;;9.50;99.90;;;;;;8361134;28;19925;-71
2023/11/20 21:09:12;;;;;;;;;;;9.60;99.90;;;;;;8360618;28;20351;-70
2023/11/20 21:13:14;;;;;;;;;;;9.50;99.90;;;;;;8363514;28;19925;-70
2023/11/20 21:17:15;;;;;;;;;;;9.50;99.90;;;;;;8363396;28;19924;-71
2023/11/20 21:21:17;;;;;;;;;;;9.50;99.90;;;;;;8360605;28;19929;-71
2023/11/20 21:25:19;;;;;;;;;;;9.40;99.90;;;;;;8367954;28;20027;-71
2023/11/20 21:29:22;;;;;;;;;;;9.30;99.90;;;;;;8357768;28;20421;-71
2023/11/20 21:33:24;;;;;;;;;;;9.30;99.90;;;;;;8357009;28;19932;-71
2023/11/20 21:37:26;;;;;;;;;;;9.20;99.90;;;;;;8355246;28;19939;-70
2023/11/20 21:41:29;;;;;;;;;;;9.10;99.90;;;;;;8361309;28;20410;-70
2023/11/20 21:45:32;;;;;;;;;;;9.00;99.90;;;;;;8358838;28;19931;-70
2023/11/20 21:49:34;;;;;;;;;;;8.90;99.90;;;;;;8358293;28;20390;-70
2023/11/20 21:53:36;;;;;;;;;;;8.80;99.90;;;;;;8338617;28;19956;-70
2023/11/20 21:57:38;;;;;;;;;;;8.80;99.90;;;;;;8358452;28;19925;-70
2023/11/20 22:06:58;;;;;;;;;;;8.60;99.90;;;;;;8390910;28;20382;-71
2023/11/20 22:11:00;;;;;;;;;;;8.50;99.90;;;;;;8380942;28;19928;-70
2023/11/20 22:15:02;;;;;;;;;;;8.40;99.90;;;;;;8404345;28;19971;-70
2023/11/20 22:19:04;;;;;;;;;;;8.30;99.90;;;;;;8369913;28;19932;-70
2023/11/20 22:23:06;;;;;;;;;;;8.30;99.90;;;;;;8404495;28;20395;-70
2023/11/20 22:27:09;;;;;;;;;;;8.20;99.90;;;;;;8403444;28;20126;-70
2023/11/20 22:31:12;;;;;;;;;;;8.20;99.90;;;;;;8397034;28;19977;-70
2023/11/20 22:35:15;;;;;;;;;;;8.10;99.90;;;;;;8403287;28;19931;-70
2023/11/20 22:39:17;;;;;;;;;;;8.10;99.90;;;;;;8388860;28;19966;-70
2023/11/20 22:43:18;;;;;;;;;;;8.00;99.90;;;;;;8400617;28;20337;-71
2023/11/20 22:47:20;;;;;;;;;;;8.00;99.90;;;;;;8395165;28;19931;-71
2023/11/20 22:51:22;;;;;;;;;;;7.90;99.90;;;;;;8393787;28;20283;-70
2023/11/20 22:55:24;;;;;;;;;;;7.90;99.90;;;;;;8386313;28;20371;-70
2023/11/20 22:59:25;;;;;;;;;;;7.80;99.90;;;;;;8397962;28;19940;-71
2023/11/20 23:03:28;;;;;;;;;;;7.80;99.90;;;;;;8410049;28;19924;-71
2023/11/20 23:07:33;;;;;;;;;;;7.70;99.90;;;;;;8406495;28;20295;-71
2023/11/20 23:11:35;;;;;;;;;;;7.70;99.90;;;;;;8398381;28;19928;-71
2023/11/20 23:15:37;;;;;;;;;;;7.70;99.90;;;;;;8394992;28;19955;-70
2023/11/20 23:19:39;;;;;;;;;;;7.60;99.90;;;;;;8408631;28;19928;-70
2023/11/20 23:23:40;;;;;;;;;;;7.60;99.90;;;;;;8392394;28;19931;-70
2023/11/20 23:27:42;;;;;;;;;;;7.50;99.90;;;;;;8382600;28;19971;-71
2023/11/20 23:31:44;;;;;;;;;;;7.50;99.90;;;;;;8408592;28;20262;-71
2023/11/20 23:35:46;;;;;;;;;;;7.40;99.90;;;;;;8389712;28;19925;-70
2023/11/20 23:39:48;;;;;;;;;;;7.40;99.90;;;;;;8392231;28;20371;-70
2023/11/20 23:58:59;;;;;;;;;;;7.30;99.90;;;;;;8401334;28;19975;-70
